LEVD

Valladolid Airport

Airport
ICAO code
LEVD
IATA Code
VLL
Summary
ICAO Region
EUR
ICAO Territory
Location

, Castilla y Leon

Serving
Valladolid
Elevation
2776 ft
Coordinates
41° 42' 22" N , 4° 51' 7" W
Metar
Observation
LEVD 050130Z AUTO 08005KT 1800 R23/P2000 R05/1400U BR NCD 02/02 Q1012
Station
Valladolid / Villanubla
Date/Time
2022-12-05 01:30:00
Wind direction
80°
Wind speed
05 kts
Lowest cloud amount
no clouds detected
Temperature
5°C
Dew point
14°C
Humidity
183%
QNH
1012 hPa
Weather condition
n/a

Runways

Designator Length Width Surface Rops
15/33 907 60 GRE No/No
5/23 3000 60 ASP Yes/Yes

Airport map

Aerial View

SKYbrary Partners:

Safety knowledge contributed by: